^^
Saratoga-Weather Station Historical Data
Daily Summary for August 23, 2021 Units:  Both    English   Metric
Daily Weekly Monthly Yearly Custom
  High: Low: Average:
Temperature: 75.7 °F /  24.3 °C 59.4 °F /  15.2 °C 65.8 °F /  18.8 °C
Dew Point: 61.3 °F /  16.3 °C 57 °F /  13.9 °C 59 °F /  15 °C
Humidity: 94% 56% 80%
Wind Speed: 6.9mph /  11.1km/h - 1.6mph /  2.5km/h
Wind Gust: 11mph /  17.7km/h - -
Wind- - SSW
Pressure: 30.1 in /  1018.0 hPa 30 in /  1015.2 hPa -
Precipitation: 0 in /  0.0 mm    
Historical Graphs
 
 
Tabular Data for August 23, 2021
Time Temperature Dew Point Pressure Wind Wind Speed Wind Gust Humidity Rainfall Rate (Hourly) solar
00:02 61 °F /  16.1 °C 59 °F /  15 °C 30in /  1015.2hPa West 0.9mph /  1.4km/h 3mph /  4.8km/h 93% 0in /  0.0mm 0 W/m2
00:07 60.8 °F /  16 °C 58.8 °F /  14.9 °C 30in /  1015.2hPa NW 2mph /  3.2km/h 2mph /  3.2km/h 93% 0in /  0.0mm 0 W/m2
00:12 61 °F /  16.1 °C 59 °F /  15 °C 30in /  1015.2hPa Calm   2mph /  3.2km/h 93% 0in /  0.0mm 0 W/m2
00:17 61 °F /  16.1 °C 59 °F /  15 °C 30in /  1015.2hPa NNW 2mph /  3.2km/h 3mph /  4.8km/h 93% 0in /  0.0mm 0 W/m2
00:22 61 °F /  16.1 °C 58.6 °F /  14.8 °C 30in /  1015.2hPa Calm   1mph /  1.6km/h 92% 0in /  0.0mm 0 W/m2
00:27 61 °F /  16.1 °C 58.6 °F /  14.8 °C 30in /  1015.2hPa SE 0.9mph /  1.4km/h 5mph /  8km/h 92% 0in /  0.0mm 0 W/m2
00:32 61 °F /  16.1 °C 58.6 °F /  14.8 °C 30in /  1015.6hPa Calm   3mph /  4.8km/h 92% 0in /  0.0mm 0 W/m2
00:37 61 °F /  16.1 °C 58.6 °F /  14.8 °C 30in /  1015.6hPa Calm   5mph /  8km/h 92% 0in /  0.0mm 0 W/m2
00:42 61 °F /  16.1 °C 58.6 °F /  14.8 °C 30in /  1015.6hPa Calm   1mph /  1.6km/h 92% 0in /  0.0mm 0 W/m2
00:47 61 °F /  16.1 °C 58.6 °F /  14.8 °C 30in /  1015.6hPa ENE 0.9mph /  1.4km/h 1mph /  1.6km/h 92% 0in /  0.0mm 0 W/m2
00:52 60.8 °F /  16 °C 58.8 °F /  14.9 °C 30in /  1015.6hPa NE 2mph /  3.2km/h 2mph /  3.2km/h 93% 0in /  0.0mm 0 W/m2
00:57 60.6 °F /  15.9 °C 58.3 °F /  14.6 °C 30in /  1015.6hPa Calm     92% 0in /  0.0mm 0 W/m2
01:02 60.6 °F /  15.9 °C 58.3 °F /  14.6 °C 30in /  1015.6hPa Calm     92% 0in /  0.0mm 0 W/m2
01:07 60.6 °F /  15.9 °C 58.3 °F /  14.6 °C 30in /  1015.6hPa Calm   1mph /  1.6km/h 92% 0in /  0.0mm 0 W/m2
01:12 60.6 °F /  15.9 °C 58.6 °F /  14.8 °C 30in /  1015.6hPa Calm   1mph /  1.6km/h 93% 0in /  0.0mm 0 W/m2
01:17 60.6 °F /  15.9 °C 58.6 °F /  14.8 °C 30in /  1015.6hPa Calm   2mph /  3.2km/h 93% 0in /  0.0mm 0 W/m2
01:22 60.6 °F /  15.9 °C 58.6 °F /  14.8 °C 30in /  1015.6hPa Calm   1mph /  1.6km/h 93% 0in /  0.0mm 0 W/m2
01:27 60.4 °F /  15.8 °C 58.5 °F /  14.7 °C 30in /  1015.6hPa Calm     93% 0in /  0.0mm 0 W/m2
01:32 60.4 °F /  15.8 °C 58.5 °F /  14.7 °C 30in /  1015.6hPa Calm     93% 0in /  0.0mm 0 W/m2
01:37 60.4 °F /  15.8 °C 58.5 °F /  14.7 °C 30in /  1015.6hPa NNW 0.9mph /  1.4km/h 1mph /  1.6km/h 93% 0in /  0.0mm 0 W/m2
01:42 60.4 °F /  15.8 °C 58.5 °F /  14.7 °C 30in /  1015.6hPa NNE 0.9mph /  1.4km/h 1mph /  1.6km/h 93% 0in /  0.0mm 0 W/m2
01:47 60.4 °F /  15.8 °C 58.5 °F /  14.7 °C 30in /  1015.6hPa Calm   6mph /  9.7km/h 93% 0in /  0.0mm 0 W/m2
01:52 60.4 °F /  15.8 °C 58.5 °F /  14.7 °C 30in /  1015.6hPa Calm   1mph /  1.6km/h 93% 0in /  0.0mm 0 W/m2
01:57 60.4 °F /  15.8 °C 58.5 °F /  14.7 °C 30in /  1015.6hPa WNW 2mph /  3.2km/h 4mph /  6.4km/h 93% 0in /  0.0mm 0 W/m2
02:02 60.4 °F /  15.8 °C 58.5 °F /  14.7 °C 30in /  1015.6hPa West 0.9mph /  1.4km/h 2mph /  3.2km/h 93% 0in /  0.0mm 0 W/m2
02:07 60.3 °F /  15.7 °C 58.3 °F /  14.6 °C 30in /  1015.6hPa West 2mph /  3.2km/h 2mph /  3.2km/h 93% 0in /  0.0mm 0 W/m2
02:12 60.3 °F /  15.7 °C 58.3 °F /  14.6 °C 30in /  1015.9hPa Calm   2mph /  3.2km/h 93% 0in /  0.0mm 0 W/m2
02:17 60.3 °F /  15.7 °C 58.3 °F /  14.6 °C 30in /  1015.9hPa Calm   2mph /  3.2km/h 93% 0in /  0.0mm 0 W/m2
02:22 60.3 °F /  15.7 °C 58.3 °F /  14.6 °C 30in /  1015.9hPa Calm   2mph /  3.2km/h 93% 0in /  0.0mm 0 W/m2
02:27 60.3 °F /  15.7 °C 58.3 °F /  14.6 °C 30in /  1015.9hPa NNW 0.9mph /  1.4km/h 2mph /  3.2km/h 93% 0in /  0.0mm 0 W/m2
02:32 60.3 °F /  15.7 °C 58.3 °F /  14.6 °C 30in /  1015.9hPa NW 0.9mph /  1.4km/h 3mph /  4.8km/h 93% 0in /  0.0mm 0 W/m2
02:37 60.3 °F /  15.7 °C 58.3 °F /  14.6 °C 30in /  1015.9hPa ESE 0.9mph /  1.4km/h 5mph /  8km/h 93% 0in /  0.0mm 0 W/m2
02:42 60.3 °F /  15.7 °C 58.3 °F /  14.6 °C 30in /  1015.9hPa Calm   2mph /  3.2km/h 93% 0in /  0.0mm 0 W/m2
02:47 60.3 °F /  15.7 °C 58.3 °F /  14.6 °C 30in /  1015.9hPa Calm   5mph /  8km/h 93% 0in /  0.0mm 0 W/m2
02:52 60.3 °F /  15.7 °C 58.3 °F /  14.6 °C 30in /  1015.9hPa Calm   1mph /  1.6km/h 93% 0in /  0.0mm 0 W/m2
02:57 60.1 °F /  15.6 °C 58.1 °F /  14.5 °C 30in /  1015.9hPa Calm   1mph /  1.6km/h 93% 0in /  0.0mm 0 W/m2
03:02 60.1 °F /  15.6 °C 58.1 °F /  14.5 °C 30in /  1015.9hPa Calm     93% 0in /  0.0mm 0 W/m2
03:07 60.1 °F /  15.6 °C 58.1 °F /  14.5 °C 30in /  1015.9hPa Calm   1mph /  1.6km/h 93% 0in /  0.0mm 0 W/m2
03:12 60.1 °F /  15.6 °C 58.1 °F /  14.5 °C 30in /  1015.9hPa East 2mph /  3.2km/h 2mph /  3.2km/h 93% 0in /  0.0mm 0 W/m2
03:17 60.1 °F /  15.6 °C 58.1 °F /  14.5 °C 30in /  1015.9hPa East 0.9mph /  1.4km/h 2mph /  3.2km/h 93% 0in /  0.0mm 0 W/m2
03:22 59.9 °F /  15.5 °C 57.9 °F /  14.4 °C 30in /  1015.9hPa Calm   2mph /  3.2km/h 93% 0in /  0.0mm 0 W/m2
03:27 59.9 °F /  15.5 °C 57.9 °F /  14.4 °C 30in /  1016.3hPa Calm     93% 0in /  0.0mm 0 W/m2
03:32 59.7 °F /  15.4 °C 57.7 °F /  14.3 °C 30in /  1015.9hPa Calm   1mph /  1.6km/h 93% 0in /  0.0mm 0 W/m2
03:37 59.7 °F /  15.4 °C 57.7 °F /  14.3 °C 30in /  1015.9hPa Calm     93% 0in /  0.0mm 0 W/m2
03:42 59.7 °F /  15.4 °C 57.7 °F /  14.3 °C 30in /  1015.9hPa Calm     93% 0in /  0.0mm 0 W/m2
03:47 59.7 °F /  15.4 °C 57.7 °F /  14.3 °C 30in /  1015.9hPa Calm   1mph /  1.6km/h 93% 0in /  0.0mm 0 W/m2
03:52 59.5 °F /  15.3 °C 57.7 °F /  14.3 °C 30in /  1015.9hPa Calm     94% 0in /  0.0mm 0 W/m2
03:57 59.5 °F /  15.3 °C 57.7 °F /  14.3 °C 30in /  1015.9hPa Calm     94% 0in /  0.0mm 0 W/m2
04:02 59.5 °F /  15.3 °C 57.7 °F /  14.3 °C 30in /  1015.9hPa Calm     94% 0in /  0.0mm 0 W/m2
04:07 59.5 °F /  15.3 °C 57.7 °F /  14.3 °C 30in /  1015.9hPa Calm     94% 0in /  0.0mm 0 W/m2
04:12 59.5 °F /  15.3 °C 57.7 °F /  14.3 °C 30in /  1015.9hPa North 0.9mph /  1.4km/h 1mph /  1.6km/h 94% 0in /  0.0mm 0 W/m2
04:17 59.5 °F /  15.3 °C 57.7 °F /  14.3 °C 30in /  1016.3hPa Calm   2mph /  3.2km/h 94% 0in /  0.0mm 0 W/m2
04:22 59.5 °F /  15.3 °C 57.7 °F /  14.3 °C 30in /  1016.3hPa Calm   1mph /  1.6km/h 94% 0in /  0.0mm 0 W/m2
04:27 59.5 °F /  15.3 °C 57.7 °F /  14.3 °C 30in /  1016.3hPa Calm   2mph /  3.2km/h 94% 0in /  0.0mm 0 W/m2
04:32 59.5 °F /  15.3 °C 57.7 °F /  14.3 °C 30in /  1016.3hPa Calm   1mph /  1.6km/h 94% 0in /  0.0mm 0 W/m2
04:37 59.5 °F /  15.3 °C 57.7 °F /  14.3 °C 30in /  1016.3hPa Calm     94% 0in /  0.0mm 0 W/m2
04:42 59.5 °F /  15.3 °C 57.7 °F /  14.3 °C 30in /  1016.3hPa WSW 0.9mph /  1.4km/h 1mph /  1.6km/h 94% 0in /  0.0mm 0 W/m2
04:47 59.5 °F /  15.3 °C 57.7 °F /  14.3 °C 30in /  1016.3hPa West 0.9mph /  1.4km/h 1mph /  1.6km/h 94% 0in /  0.0mm 0 W/m2
04:52 59.5 °F /  15.3 °C 57.7 °F /  14.3 °C 30in /  1016.3hPa ENE 0.9mph /  1.4km/h 3mph /  4.8km/h 94% 0in /  0.0mm 0 W/m2
04:57 59.5 °F /  15.3 °C 57.7 °F /  14.3 °C 30in /  1016.3hPa ESE 0.9mph /  1.4km/h 2mph /  3.2km/h 94% 0in /  0.0mm 0 W/m2
05:02 59.5 °F /  15.3 °C 57.7 °F /  14.3 °C 30in /  1016.3hPa NNW 2mph /  3.2km/h 4mph /  6.4km/h 94% 0in /  0.0mm 0 W/m2
05:07 59.5 °F /  15.3 °C 57.7 °F /  14.3 °C 30in /  1016.3hPa Calm   1mph /  1.6km/h 94% 0in /  0.0mm 0 W/m2
05:12 59.5 °F /  15.3 °C 57.7 °F /  14.3 °C 30in /  1016.3hPa Calm   4mph /  6.4km/h 94% 0in /  0.0mm 0 W/m2
05:17 59.5 °F /  15.3 °C 57.7 °F /  14.3 °C 30in /  1016.3hPa NE 0.9mph /  1.4km/h 2mph /  3.2km/h 94% 0in /  0.0mm 0 W/m2
05:22 59.5 °F /  15.3 °C 57.7 °F /  14.3 °C 30in /  1016.3hPa Calm   3mph /  4.8km/h 94% 0in /  0.0mm 0 W/m2
05:27 59.5 °F /  15.3 °C 57.7 °F /  14.3 °C 30in /  1016.3hPa NE 0.9mph /  1.4km/h 4mph /  6.4km/h 94% 0in /  0.0mm 0 W/m2
05:32 59.4 °F /  15.2 °C 57.6 °F /  14.2 °C 30in /  1016.3hPa East 2mph /  3.2km/h 3mph /  4.8km/h 94% 0in /  0.0mm 0 W/m2
05:37 59.4 °F /  15.2 °C 57.6 °F /  14.2 °C 30in /  1016.3hPa NE 2mph /  3.2km/h 4mph /  6.4km/h 94% 0in /  0.0mm 0 W/m2
05:42 59.4 °F /  15.2 °C 57.6 °F /  14.2 °C 30in /  1016.6hPa NE 0.9mph /  1.4km/h 3mph /  4.8km/h 94% 0in /  0.0mm 0 W/m2
05:48 59.4 °F /  15.2 °C 57.6 °F /  14.2 °C 30in /  1016.6hPa East 0.9mph /  1.4km/h 3mph /  4.8km/h 94% 0in /  0.0mm 0 W/m2
05:53 59.4 °F /  15.2 °C 57.6 °F /  14.2 °C 30in /  1016.6hPa Calm   4mph /  6.4km/h 94% 0in /  0.0mm 5 W/m2
05:58 59.4 °F /  15.2 °C 57.6 °F /  14.2 °C 30in /  1016.6hPa NE 0.9mph /  1.4km/h 1mph /  1.6km/h 94% 0in /  0.0mm 5 W/m2
06:03 59.4 °F /  15.2 °C 57.6 °F /  14.2 °C 30in /  1016.6hPa Calm   2mph /  3.2km/h 94% 0in /  0.0mm 7 W/m2
06:08 59.4 °F /  15.2 °C 57.6 °F /  14.2 °C 30in /  1016.6hPa Calm     94% 0in /  0.0mm 12 W/m2
06:13 59.4 °F /  15.2 °C 57.6 °F /  14.2 °C 30in /  1016.6hPa Calm   1mph /  1.6km/h 94% 0in /  0.0mm 18 W/m2
06:18 59.5 °F /  15.3 °C 57.7 °F /  14.3 °C 30in /  1016.6hPa East 2.9mph /  4.7km/h 3mph /  4.8km/h 94% 0in /  0.0mm 25 W/m2
06:23 59.5 °F /  15.3 °C 57.7 °F /  14.3 °C 30in /  1016.6hPa NNW 0.9mph /  1.4km/h 3mph /  4.8km/h 94% 0in /  0.0mm 18 W/m2
06:28 59.5 °F /  15.3 °C 57.7 °F /  14.3 °C 30in /  1016.6hPa Calm   2mph /  3.2km/h 94% 0in /  0.0mm 19 W/m2
06:33 59.5 °F /  15.3 °C 57.7 °F /  14.3 °C 30in /  1016.6hPa ENE 4mph /  6.4km/h 5mph /  8km/h 94% 0in /  0.0mm 28 W/m2
06:38 59.5 °F /  15.3 °C 57.7 °F /  14.3 °C 30in /  1016.9hPa ENE 0.9mph /  1.4km/h 3mph /  4.8km/h 94% 0in /  0.0mm 40 W/m2
06:43 59.7 °F /  15.4 °C 57.9 °F /  14.4 °C 30in /  1016.6hPa Calm   5mph /  8km/h 94% 0in /  0.0mm 30 W/m2
06:48 59.7 °F /  15.4 °C 57.9 °F /  14.4 °C 30in /  1016.9hPa NNW 0.9mph /  1.4km/h 2mph /  3.2km/h 94% 0in /  0.0mm 21 W/m2
06:53 59.7 °F /  15.4 °C 57.9 °F /  14.4 °C 30in /  1016.9hPa NW 2mph /  3.2km/h 5mph /  8km/h 94% 0in /  0.0mm 21 W/m2
06:58 59.7 °F /  15.4 °C 57.9 °F /  14.4 °C 30in /  1016.9hPa NNW 0.9mph /  1.4km/h 2mph /  3.2km/h 94% 0in /  0.0mm 23 W/m2
07:03 59.7 °F /  15.4 °C 57.7 °F /  14.3 °C 30in /  1016.9hPa ENE 2.9mph /  4.7km/h 3mph /  4.8km/h 93% 0in /  0.0mm 51 W/m2
07:08 59.9 °F /  15.5 °C 58.1 °F /  14.5 °C 30in /  1016.9hPa Calm   1mph /  1.6km/h 94% 0in /  0.0mm 63 W/m2
07:13 60.1 °F /  15.6 °C 58.3 °F /  14.6 °C 30in /  1016.9hPa Calm   1mph /  1.6km/h 94% 0in /  0.0mm 83 W/m2
07:18 60.1 °F /  15.6 °C 58.1 °F /  14.5 °C 30in /  1016.9hPa NNW 2mph /  3.2km/h 3mph /  4.8km/h 93% 0in /  0.0mm 76 W/m2
07:23 60.3 °F /  15.7 °C 58.3 °F /  14.6 °C 30in /  1016.9hPa NE 0.9mph /  1.4km/h 2mph /  3.2km/h 93% 0in /  0.0mm 67 W/m2
07:28 60.3 °F /  15.7 °C 58.3 °F /  14.6 °C 30in /  1016.9hPa WNW 2mph /  3.2km/h 3mph /  4.8km/h 93% 0in /  0.0mm 54 W/m2
07:33 60.3 °F /  15.7 °C 58.3 °F /  14.6 °C 30in /  1016.9hPa Calm   3mph /  4.8km/h 93% 0in /  0.0mm 54 W/m2
07:38 60.4 °F /  15.8 °C 58.5 °F /  14.7 °C 30in /  1016.9hPa North 0.9mph /  1.4km/h 1mph /  1.6km/h 93% 0in /  0.0mm 58 W/m2
07:43 60.4 °F /  15.8 °C 58.5 °F /  14.7 °C 30in /  1016.9hPa East 2.9mph /  4.7km/h 3mph /  4.8km/h 93% 0in /  0.0mm 69 W/m2
07:48 60.4 °F /  15.8 °C 58.5 °F /  14.7 °C 30in /  1016.9hPa NE 2.9mph /  4.7km/h 3mph /  4.8km/h 93% 0in /  0.0mm 76 W/m2
07:53 60.6 °F /  15.9 °C 58.6 °F /  14.8 °C 30in /  1016.9hPa NNW 0.9mph /  1.4km/h 1mph /  1.6km/h 93% 0in /  0.0mm 84 W/m2
07:58 60.6 °F /  15.9 °C 58.3 °F /  14.6 °C 30in /  1016.9hPa NNE 0.9mph /  1.4km/h 2mph /  3.2km/h 92% 0in /  0.0mm 79 W/m2
08:03 60.8 °F /  16 °C 58.5 °F /  14.7 °C 30in /  1016.9hPa NNW 2mph /  3.2km/h 4mph /  6.4km/h 92% 0in /  0.0mm 69 W/m2
08:08 61 °F /  16.1 °C 58.6 °F /  14.8 °C 30in /  1016.9hPa NNW 0.9mph /  1.4km/h 3mph /  4.8km/h 92% 0in /  0.0mm 109 W/m2
08:13 61.2 °F /  16.2 °C 58.8 °F /  14.9 °C 30in /  1016.9hPa East 2mph /  3.2km/h 3mph /  4.8km/h 92% 0in /  0.0mm 125 W/m2
08:18 61.3 °F /  16.3 °C 59 °F /  15 °C 30in /  1016.9hPa SE 0.9mph /  1.4km/h 3mph /  4.8km/h 92% 0in /  0.0mm 132 W/m2
08:23 61.5 °F /  16.4 °C 59.2 °F /  15.1 °C 30in /  1017.3hPa ENE 0.9mph /  1.4km/h 5mph /  8km/h 92% 0in /  0.0mm 121 W/m2
08:28 61.5 °F /  16.4 °C 59.2 °F /  15.1 °C 30in /  1016.9hPa NW 0.9mph /  1.4km/h 5mph /  8km/h 92% 0in /  0.0mm 105 W/m2
08:33 61.9 °F /  16.6 °C 59.2 °F /  15.1 °C 30in /  1017.3hPa NNE 0.9mph /  1.4km/h 4mph /  6.4km/h 91% 0in /  0.0mm 128 W/m2
08:38 61.9 °F /  16.6 °C 59 °F /  15 °C 30in /  1017.3hPa ENE 2.9mph /  4.7km/h 5mph /  8km/h 90% 0in /  0.0mm 130 W/m2
08:43 62.1 °F /  16.7 °C 59.2 °F /  15.1 °C 30in /  1017.3hPa East 0.9mph /  1.4km/h 3mph /  4.8km/h 90% 0in /  0.0mm 120 W/m2
08:48 62.1 °F /  16.7 °C 59.2 °F /  15.1 °C 30in /  1017.3hPa East 0.9mph /  1.4km/h 2mph /  3.2km/h 90% 0in /  0.0mm 132 W/m2
08:53 62.2 °F /  16.8 °C 59.2 °F /  15.1 °C 30in /  1017.3hPa Calm   3mph /  4.8km/h 90% 0in /  0.0mm 104 W/m2
08:58 62.2 °F /  16.8 °C 59.2 °F /  15.1 °C 30in /  1017.3hPa Calm   2mph /  3.2km/h 90% 0in /  0.0mm 81 W/m2
09:03 62.4 °F /  16.9 °C 59.2 °F /  15.1 °C 30in /  1017.3hPa NE 2mph /  3.2km/h 2mph /  3.2km/h 89% 0in /  0.0mm 91 W/m2
09:08 62.4 °F /  16.9 °C 59.2 °F /  15.1 °C 30in /  1017.3hPa Calm   2mph /  3.2km/h 89% 0in /  0.0mm 100 W/m2
09:13 62.4 °F /  16.9 °C 59.2 °F /  15.1 °C 30in /  1017.3hPa NNW 0.9mph /  1.4km/h 2mph /  3.2km/h 89% 0in /  0.0mm 91 W/m2
09:18 62.6 °F /  17 °C 59.4 °F /  15.2 °C 30in /  1017.3hPa Calm   2mph /  3.2km/h 89% 0in /  0.0mm 107 W/m2
09:23 62.8 °F /  17.1 °C 59.5 °F /  15.3 °C 30in /  1017.3hPa Calm   1mph /  1.6km/h 89% 0in /  0.0mm 93 W/m2
09:28 62.6 °F /  17 °C 59 °F /  15 °C 30in /  1017.3hPa Calm   5mph /  8km/h 88% 0in /  0.0mm 121 W/m2
09:33 62.8 °F /  17.1 °C 59.5 °F /  15.3 °C 30.1in /  1017.6hPa Calm   2mph /  3.2km/h 89% 0in /  0.0mm 121 W/m2
09:38 62.8 °F /  17.1 °C 59.2 °F /  15.1 °C 30.1in /  1017.6hPa East 2mph /  3.2km/h 5mph /  8km/h 88% 0in /  0.0mm 123 W/m2
09:43 62.8 °F /  17.1 °C 59.2 °F /  15.1 °C 30.1in /  1017.6hPa Calm   4mph /  6.4km/h 88% 0in /  0.0mm 153 W/m2
09:48 62.8 °F /  17.1 °C 59.2 °F /  15.1 °C 30.1in /  1017.6hPa East 0.9mph /  1.4km/h 1mph /  1.6km/h 88% 0in /  0.0mm 142 W/m2
09:53 63 °F /  17.2 °C 59.4 °F /  15.2 °C 30.1in /  1017.6hPa Calm     88% 0in /  0.0mm 127 W/m2
09:58 63 °F /  17.2 °C 59.4 °F /  15.2 °C 30.1in /  1017.6hPa NE 0.9mph /  1.4km/h 2mph /  3.2km/h 88% 0in /  0.0mm 141 W/m2
10:03 63.1 °F /  17.3 °C 59.5 °F /  15.3 °C 30.1in /  1017.6hPa Calm   1mph /  1.6km/h 88% 0in /  0.0mm 144 W/m2
10:08 63.1 °F /  17.3 °C 59.2 °F /  15.1 °C 30.1in /  1018.0hPa Calm   4mph /  6.4km/h 87% 0in /  0.0mm 158 W/m2
10:13 63.3 °F /  17.4 °C 59.4 °F /  15.2 °C 30.1in /  1018.0hPa NE 2mph /  3.2km/h 3mph /  4.8km/h 87% 0in /  0.0mm 156 W/m2
10:18 63.3 °F /  17.4 °C 59.4 °F /  15.2 °C 30.1in /  1018.0hPa NE 0.9mph /  1.4km/h 1mph /  1.6km/h 87% 0in /  0.0mm 155 W/m2
10:23 63.3 °F /  17.4 °C 59.4 °F /  15.2 °C 30.1in /  1018.0hPa ENE 2mph /  3.2km/h 4mph /  6.4km/h 87% 0in /  0.0mm 144 W/m2
10:28 63.5 °F /  17.5 °C 59.5 °F /  15.3 °C 30.1in /  1018.0hPa East 0.9mph /  1.4km/h 1mph /  1.6km/h 87% 0in /  0.0mm 190 W/m2
10:33 63.7 °F /  17.6 °C 59.7 °F /  15.4 °C 30.1in /  1018.0hPa North 0.9mph /  1.4km/h 4mph /  6.4km/h 87% 0in /  0.0mm 192 W/m2
10:38 63.9 °F /  17.7 °C 59.9 °F /  15.5 °C 30.1in /  1018.0hPa Calm   4mph /  6.4km/h 87% 0in /  0.0mm 132 W/m2
10:43 63.9 °F /  17.7 °C 59.5 °F /  15.3 °C 30.1in /  1018.0hPa NNE 0.9mph /  1.4km/h 2mph /  3.2km/h 86% 0in /  0.0mm 93 W/m2
10:48 63.9 °F /  17.7 °C 59.5 °F /  15.3 °C 30.1in /  1018.0hPa Calm   3mph /  4.8km/h 86% 0in /  0.0mm 86 W/m2
10:54 63.9 °F /  17.7 °C 59.2 °F /  15.1 °C 30.1in /  1018.0hPa East 0.9mph /  1.4km/h 4mph /  6.4km/h 85% 0in /  0.0mm 79 W/m2
10:59 63.9 °F /  17.7 °C 59.2 °F /  15.1 °C 30.1in /  1018.0hPa ENE 0.9mph /  1.4km/h 3mph /  4.8km/h 85% 0in /  0.0mm 127 W/m2
11:04 63.9 °F /  17.7 °C 59.2 °F /  15.1 °C 30.1in /  1018.0hPa Calm   4mph /  6.4km/h 85% 0in /  0.0mm 163 W/m2
11:09 64 °F /  17.8 °C 59.7 °F /  15.4 °C 30.1in /  1018.0hPa East 2mph /  3.2km/h 2mph /  3.2km/h 86% 0in /  0.0mm 185 W/m2
11:14 64.2 °F /  17.9 °C 59.5 °F /  15.3 °C 30.1in /  1018.0hPa Calm   2mph /  3.2km/h 85% 0in /  0.0mm 156 W/m2
11:19 64.4 °F /  18 °C 59.7 °F /  15.4 °C 30.1in /  1018.0hPa NNW 2mph /  3.2km/h 2mph /  3.2km/h 85% 0in /  0.0mm 165 W/m2
11:24 64.4 °F /  18 °C 59.7 °F /  15.4 °C 30.1in /  1018.0hPa Calm   3mph /  4.8km/h 85% 0in /  0.0mm 207 W/m2
11:29 64.6 °F /  18.1 °C 59.7 °F /  15.4 °C 30.1in /  1018.0hPa Calm   3mph /  4.8km/h 84% 0in /  0.0mm 209 W/m2
11:34 64.6 °F /  18.1 °C 59.7 °F /  15.4 °C 30.1in /  1018.0hPa East 2mph /  3.2km/h 4mph /  6.4km/h 84% 0in /  0.0mm 207 W/m2
11:39 64.8 °F /  18.2 °C 60.1 °F /  15.6 °C 30.1in /  1018.0hPa ENE 2mph /  3.2km/h 2mph /  3.2km/h 85% 0in /  0.0mm 204 W/m2
11:44 64.8 °F /  18.2 °C 59.5 °F /  15.3 °C 30.1in /  1018.0hPa Calm   3mph /  4.8km/h 83% 0in /  0.0mm 220 W/m2
11:49 64.9 °F /  18.3 °C 59.7 °F /  15.4 °C 30.1in /  1017.6hPa NE 2mph /  3.2km/h 3mph /  4.8km/h 83% 0in /  0.0mm 227 W/m2
11:54 64.9 °F /  18.3 °C 59.7 °F /  15.4 °C 30.1in /  1018.0hPa Calm   3mph /  4.8km/h 83% 0in /  0.0mm 258 W/m2
11:59 65.5 °F /  18.6 °C 59.9 °F /  15.5 °C 30.1in /  1017.6hPa East 0.9mph /  1.4km/h 2mph /  3.2km/h 82% 0in /  0.0mm 297 W/m2
12:04 65.7 °F /  18.7 °C 60.1 °F /  15.6 °C 30.1in /  1017.6hPa NW 0.9mph /  1.4km/h 2mph /  3.2km/h 82% 0in /  0.0mm 457 W/m2
12:09 66.4 °F /  19.1 °C 61.3 °F /  16.3 °C 30.1in /  1017.6hPa NNE 2mph /  3.2km/h 3mph /  4.8km/h 84% 0in /  0.0mm 1137 W/m2
12:14 66.9 °F /  19.4 °C 60.6 °F /  15.9 °C 30.1in /  1017.6hPa Calm     80% 0in /  0.0mm 970 W/m2
12:19 67.8 °F /  19.9 °C 61.3 °F /  16.3 °C 30.1in /  1017.6hPa NW 0.9mph /  1.4km/h 3mph /  4.8km/h 80% 0in /  0.0mm 969 W/m2
12:24 68.4 °F /  20.2 °C 61.2 °F /  16.2 °C 30.1in /  1017.6hPa NNW 0.9mph /  1.4km/h 4mph /  6.4km/h 78% 0in /  0.0mm 960 W/m2
12:29 68.7 °F /  20.4 °C 61.2 °F /  16.2 °C 30in /  1017.3hPa East 2mph /  3.2km/h 3mph /  4.8km/h 77% 0in /  0.0mm 1005 W/m2
12:34 69.6 °F /  20.9 °C 61.3 °F /  16.3 °C 30in /  1017.3hPa SE 2mph /  3.2km/h 4mph /  6.4km/h 75% 0in /  0.0mm 1085 W/m2
12:39 70.2 °F /  21.2 °C 61.2 °F /  16.2 °C 30in /  1017.3hPa NE 0.9mph /  1.4km/h 3mph /  4.8km/h 73% 0in /  0.0mm 297 W/m2
12:44 69.8 °F /  21 °C 60.4 °F /  15.8 °C 30in /  1017.3hPa Calm   3mph /  4.8km/h 72% 0in /  0.0mm 446 W/m2
12:49 69.4 °F /  20.8 °C 60.1 °F /  15.6 °C 30in /  1017.3hPa ENE 2.9mph /  4.7km/h 3mph /  4.8km/h 72% 0in /  0.0mm 267 W/m2
12:54 68.9 °F /  20.5 °C 60.6 °F /  15.9 °C 30in /  1017.3hPa Calm   1mph /  1.6km/h 75% 0in /  0.0mm 267 W/m2
12:59 68.7 °F /  20.4 °C 59.7 °F /  15.4 °C 30in /  1017.3hPa ESE 0.9mph /  1.4km/h 3mph /  4.8km/h 73% 0in /  0.0mm 348 W/m2
13:04 69.1 °F /  20.6 °C 60.8 °F /  16 °C 30in /  1017.3hPa ENE 2.9mph /  4.7km/h 3mph /  4.8km/h 75% 0in /  0.0mm 1150 W/m2
13:09 70 °F /  21.1 °C 61 °F /  16.1 °C 30.1in /  1017.6hPa ENE 2mph /  3.2km/h 6mph /  9.7km/h 73% 0in /  0.0mm 452 W/m2
13:14 70.2 °F /  21.2 °C 60.6 °F /  15.9 °C 30.1in /  1017.6hPa ENE 2mph /  3.2km/h 3mph /  4.8km/h 72% 0in /  0.0mm 411 W/m2
13:19 70.3 °F /  21.3 °C 60.8 °F /  16 °C 30in /  1017.3hPa East 4mph /  6.4km/h 6mph /  9.7km/h 72% 0in /  0.0mm 540 W/m2
13:24 70.5 °F /  21.4 °C 60.3 °F /  15.7 °C 30in /  1017.3hPa SE 2.9mph /  4.7km/h 4mph /  6.4km/h 70% 0in /  0.0mm 1136 W/m2
13:29 70.9 °F /  21.6 °C 60.3 °F /  15.7 °C 30in /  1017.3hPa NE 4mph /  6.4km/h 4mph /  6.4km/h 69% 0in /  0.0mm 1072 W/m2
13:34 71.4 °F /  21.9 °C 60.3 °F /  15.7 °C 30in /  1017.3hPa Calm   4mph /  6.4km/h 68% 0in /  0.0mm 1181 W/m2
13:39 71.4 °F /  21.9 °C 59.9 °F /  15.5 °C 30in /  1017.3hPa East 0.9mph /  1.4km/h 4mph /  6.4km/h 67% 0in /  0.0mm 1181 W/m2
13:44 71.8 °F /  22.1 °C 59.4 °F /  15.2 °C 30.1in /  1017.6hPa SE 2mph /  3.2km/h 3mph /  4.8km/h 65% 0in /  0.0mm 838 W/m2
13:49 71.8 °F /  22.1 °C 60.3 °F /  15.7 °C 30in /  1017.3hPa West 6mph /  9.7km/h 6mph /  9.7km/h 67% 0in /  0.0mm 1183 W/m2
13:54 71.8 °F /  22.1 °C 60.3 °F /  15.7 °C 30in /  1017.3hPa NE 2mph /  3.2km/h 2mph /  3.2km/h 67% 0in /  0.0mm 1160 W/m2
13:59 72.1 °F /  22.3 °C 60.6 °F /  15.9 °C 30in /  1017.3hPa South 2mph /  3.2km/h 6mph /  9.7km/h 67% 0in /  0.0mm 1083 W/m2
14:04 72.7 °F /  22.6 °C 61.2 °F /  16.2 °C 30in /  1017.3hPa Calm   1mph /  1.6km/h 67% 0in /  0.0mm 1136 W/m2
14:09 73.2 °F /  22.9 °C 60.8 °F /  16 °C 30in /  1017.3hPa ESE 4mph /  6.4km/h 6mph /  9.7km/h 65% 0in /  0.0mm 1065 W/m2
14:14 73.8 °F /  23.2 °C 60.8 °F /  16 °C 30in /  1016.9hPa Calm   5mph /  8km/h 64% 0in /  0.0mm 1037 W/m2
14:19 73.8 °F /  23.2 °C 59.5 °F /  15.3 °C 30in /  1016.9hPa NNW 0.9mph /  1.4km/h 1mph /  1.6km/h 61% 0in /  0.0mm 237 W/m2
14:24 73.6 °F /  23.1 °C 59.7 °F /  15.4 °C 30in /  1016.9hPa ESE 2mph /  3.2km/h 4mph /  6.4km/h 62% 0in /  0.0mm 211 W/m2
14:29 73 °F /  22.8 °C 58.8 °F /  14.9 °C 30in /  1016.9hPa ENE 4.9mph /  7.9km/h 5mph /  8km/h 61% 0in /  0.0mm 234 W/m2
14:34 73 °F /  22.8 °C 58.8 °F /  14.9 °C 30in /  1017.3hPa SE 0.9mph /  1.4km/h 3mph /  4.8km/h 61% 0in /  0.0mm 214 W/m2
14:39 72.9 °F /  22.7 °C 59.5 °F /  15.3 °C 30in /  1016.9hPa SE 5mph /  8km/h 5mph /  8km/h 63% 0in /  0.0mm 327 W/m2
14:44 72.9 °F /  22.7 °C 59.9 °F /  15.5 °C 30in /  1016.9hPa NW 2mph /  3.2km/h 4mph /  6.4km/h 64% 0in /  0.0mm 320 W/m2
14:49 72.7 °F /  22.6 °C 59.7 °F /  15.4 °C 30in /  1016.9hPa NW 2.9mph /  4.7km/h 5mph /  8km/h 64% 0in /  0.0mm 1127 W/m2
14:54 73 °F /  22.8 °C 59.2 °F /  15.1 °C 30in /  1016.9hPa North 4mph /  6.4km/h 10mph /  16.1km/h 62% 0in /  0.0mm 367 W/m2
14:59 72.9 °F /  22.7 °C 58.6 °F /  14.8 °C 30in /  1016.9hPa WNW 0.9mph /  1.4km/h 5mph /  8km/h 61% 0in /  0.0mm 694 W/m2
15:04 72.7 °F /  22.6 °C 59.4 °F /  15.2 °C 30in /  1016.9hPa East 2mph /  3.2km/h 10mph /  16.1km/h 63% 0in /  0.0mm 364 W/m2
15:09 72.9 °F /  22.7 °C 59 °F /  15 °C 30in /  1016.9hPa WNW 2.9mph /  4.7km/h 4mph /  6.4km/h 62% 0in /  0.0mm 267 W/m2
15:14 72.7 °F /  22.6 °C 59.4 °F /  15.2 °C 30in /  1016.9hPa NNW 0.9mph /  1.4km/h 6mph /  9.7km/h 63% 0in /  0.0mm 330 W/m2
15:19 72.9 °F /  22.7 °C 59.9 °F /  15.5 °C 30in /  1016.9hPa ENE 2mph /  3.2km/h 4mph /  6.4km/h 64% 0in /  0.0mm 406 W/m2
15:24 73.6 °F /  23.1 °C 59.7 °F /  15.4 °C 30in /  1016.9hPa West 2mph /  3.2km/h 5mph /  8km/h 62% 0in /  0.0mm 406 W/m2
15:29 73.4 °F /  23 °C 59.2 °F /  15.1 °C 30in /  1016.9hPa SSW 0.9mph /  1.4km/h 4mph /  6.4km/h 61% 0in /  0.0mm 446 W/m2
15:34 73.2 °F /  22.9 °C 59.4 °F /  15.2 °C 30in /  1016.9hPa ENE 2.9mph /  4.7km/h 3mph /  4.8km/h 62% 0in /  0.0mm 480 W/m2
15:39 73.4 °F /  23 °C 59.2 °F /  15.1 °C 30in /  1016.6hPa Calm   4mph /  6.4km/h 61% 0in /  0.0mm 1085 W/m2
15:44 74.1 °F /  23.4 °C 59.7 °F /  15.4 °C 30in /  1016.6hPa NNW 4mph /  6.4km/h 6mph /  9.7km/h 61% 0in /  0.0mm 977 W/m2
15:49 74.5 °F /  23.6 °C 60.6 °F /  15.9 °C 30in /  1016.6hPa NNE 2.9mph /  4.7km/h 3mph /  4.8km/h 62% 0in /  0.0mm 710 W/m2
15:54 74.5 °F /  23.6 °C 59.7 °F /  15.4 °C 30in /  1016.6hPa ENE 2mph /  3.2km/h 5mph /  8km/h 60% 0in /  0.0mm 294 W/m2
15:59 74.1 °F /  23.4 °C 59.4 °F /  15.2 °C 30in /  1016.6hPa Calm   4mph /  6.4km/h 60% 0in /  0.0mm 366 W/m2
16:04 73.9 °F /  23.3 °C 59.7 °F /  15.4 °C 30in /  1016.6hPa WNW 4mph /  6.4km/h 7mph /  11.3km/h 61% 0in /  0.0mm 229 W/m2
16:09 73.6 °F /  23.1 °C 59.4 °F /  15.2 °C 30in /  1016.6hPa SSW 2mph /  3.2km/h 4mph /  6.4km/h 61% 0in /  0.0mm 216 W/m2
16:14 73.2 °F /  22.9 °C 59 °F /  15 °C 30in /  1016.6hPa North 0.9mph /  1.4km/h 7mph /  11.3km/h 61% 0in /  0.0mm 221 W/m2
16:19 73.2 °F /  22.9 °C 59 °F /  15 °C 30in /  1016.6hPa ESE 0.9mph /  1.4km/h 4mph /  6.4km/h 61% 0in /  0.0mm 255 W/m2
16:24 73.4 °F /  23 °C 59.2 °F /  15.1 °C 30in /  1016.6hPa East 0.9mph /  1.4km/h 3mph /  4.8km/h 61% 0in /  0.0mm 197 W/m2
16:29 73.4 °F /  23 °C 58.6 °F /  14.8 °C 30in /  1016.6hPa ENE 0.9mph /  1.4km/h 2mph /  3.2km/h 60% 0in /  0.0mm 176 W/m2
16:34 73.4 °F /  23 °C 59.5 °F /  15.3 °C 30in /  1016.6hPa Calm   3mph /  4.8km/h 62% 0in /  0.0mm 141 W/m2
16:39 73 °F /  22.8 °C 58.8 °F /  14.9 °C 30in /  1016.6hPa NW 2mph /  3.2km/h 4mph /  6.4km/h 61% 0in /  0.0mm 132 W/m2
16:44 73 °F /  22.8 °C 59.2 °F /  15.1 °C 30in /  1016.3hPa ENE 0.9mph /  1.4km/h 4mph /  6.4km/h 62% 0in /  0.0mm 149 W/m2
16:49 72.9 °F /  22.7 °C 59.5 °F /  15.3 °C 30in /  1016.3hPa NE 2mph /  3.2km/h 3mph /  4.8km/h 63% 0in /  0.0mm 172 W/m2
16:54 72.9 °F /  22.7 °C 59.5 °F /  15.3 °C 30in /  1016.3hPa North 0.9mph /  1.4km/h 4mph /  6.4km/h 63% 0in /  0.0mm 125 W/m2
16:59 72.9 °F /  22.7 °C 59.5 °F /  15.3 °C 30in /  1016.3hPa NW 2mph /  3.2km/h 4mph /  6.4km/h 63% 0in /  0.0mm 691 W/m2
17:04 73.6 °F /  23.1 °C 59.7 °F /  15.4 °C 30in /  1016.3hPa Calm   3mph /  4.8km/h 62% 0in /  0.0mm 693 W/m2
17:09 73.8 °F /  23.2 °C 59 °F /  15 °C 30in /  1016.3hPa East 0.9mph /  1.4km/h 3mph /  4.8km/h 60% 0in /  0.0mm 148 W/m2
17:14 73.8 °F /  23.2 °C 59.9 °F /  15.5 °C 30in /  1016.3hPa WNW 2mph /  3.2km/h 3mph /  4.8km/h 62% 0in /  0.0mm 162 W/m2
17:19 73.9 °F /  23.3 °C 59.2 °F /  15.1 °C 30in /  1016.3hPa Calm     60% 0in /  0.0mm 687 W/m2
17:24 74.7 °F /  23.7 °C 58.8 °F /  14.9 °C 30in /  1016.3hPa NW 2mph /  3.2km/h 3mph /  4.8km/h 58% 0in /  0.0mm 148 W/m2
17:29 74.7 °F /  23.7 °C 59.4 °F /  15.2 °C 30in /  1016.3hPa ESE 2mph /  3.2km/h 4mph /  6.4km/h 59% 0in /  0.0mm 624 W/m2
17:34 74.8 °F /  23.8 °C 60.4 °F /  15.8 °C 30in /  1016.3hPa NW 2mph /  3.2km/h 5mph /  8km/h 61% 0in /  0.0mm 629 W/m2
17:39 75.6 °F /  24.2 °C 60.3 °F /  15.7 °C 30in /  1016.3hPa ENE 2.9mph /  4.7km/h 4mph /  6.4km/h 59% 0in /  0.0mm 564 W/m2
17:44 75.7 °F /  24.3 °C 59.9 °F /  15.5 °C 30in /  1016.3hPa Calm   3mph /  4.8km/h 58% 0in /  0.0mm 499 W/m2
17:49 75.6 °F /  24.2 °C 59.7 °F /  15.4 °C 30in /  1015.9hPa NW 4mph /  6.4km/h 5mph /  8km/h 58% 0in /  0.0mm 118 W/m2
17:54 74.8 °F /  23.8 °C 59.5 °F /  15.3 °C 30in /  1015.9hPa West 4mph /  6.4km/h 6mph /  9.7km/h 59% 0in /  0.0mm 517 W/m2
17:59 74.5 °F /  23.6 °C 59.2 °F /  15.1 °C 30in /  1015.9hPa West 4mph /  6.4km/h 4mph /  6.4km/h 59% 0in /  0.0mm 118 W/m2
18:04 74.5 °F /  23.6 °C 59.2 °F /  15.1 °C 30in /  1015.9hPa WNW 4mph /  6.4km/h 4mph /  6.4km/h 59% 0in /  0.0mm 584 W/m2
18:09 74.7 °F /  23.7 °C 58.8 °F /  14.9 °C 30in /  1015.9hPa NW 0.9mph /  1.4km/h 3mph /  4.8km/h 58% 0in /  0.0mm 153 W/m2
18:14 74.8 °F /  23.8 °C 59.5 °F /  15.3 °C 30in /  1015.6hPa NNW 2mph /  3.2km/h 2mph /  3.2km/h 59% 0in /  0.0mm 522 W/m2
18:19 75.4 °F /  24.1 °C 59 °F /  15 °C 30in /  1015.6hPa WNW 4mph /  6.4km/h 8mph /  12.9km/h 57% 0in /  0.0mm 482 W/m2
18:24 75.4 °F /  24.1 °C 58.6 °F /  14.8 °C 30in /  1015.6hPa NNW 4mph /  6.4km/h 8mph /  12.9km/h 56% 0in /  0.0mm 443 W/m2
18:30 75 °F /  23.9 °C 58.3 °F /  14.6 °C 30in /  1015.6hPa WNW 2.9mph /  4.7km/h 6mph /  9.7km/h 56% 0in /  0.0mm 323 W/m2
18:35 74.5 °F /  23.6 °C 58.3 °F /  14.6 °C 30in /  1015.9hPa WNW 2.9mph /  4.7km/h 8mph /  12.9km/h 57% 0in /  0.0mm 67 W/m2
18:40 73.9 °F /  23.3 °C 59.2 °F /  15.1 °C 30in /  1015.9hPa WSW 2.9mph /  4.7km/h 4mph /  6.4km/h 60% 0in /  0.0mm 56 W/m2
18:45 73.2 °F /  22.9 °C 59 °F /  15 °C 30in /  1015.9hPa NW 2mph /  3.2km/h 5mph /  8km/h 61% 0in /  0.0mm 56 W/m2
18:50 72.9 °F /  22.7 °C 59 °F /  15 °C 30in /  1015.9hPa West 2.9mph /  4.7km/h 4mph /  6.4km/h 62% 0in /  0.0mm 60 W/m2
18:55 72.1 °F /  22.3 °C 58.8 °F /  14.9 °C 30in /  1016.3hPa WSW 4mph /  6.4km/h 6mph /  9.7km/h 63% 0in /  0.0mm 62 W/m2
19:00 71.8 °F /  22.1 °C 59.7 °F /  15.4 °C 30in /  1016.3hPa WNW 4mph /  6.4km/h 4mph /  6.4km/h 66% 0in /  0.0mm 76 W/m2
19:05 71.4 °F /  21.9 °C 59.5 °F /  15.3 °C 30in /  1016.3hPa WNW 2.9mph /  4.7km/h 4mph /  6.4km/h 66% 0in /  0.0mm 81 W/m2
19:10 71.2 °F /  21.8 °C 58.8 °F /  14.9 °C 30in /  1016.3hPa West 2.9mph /  4.7km/h 6mph /  9.7km/h 65% 0in /  0.0mm 98 W/m2
19:15 71.2 °F /  21.8 °C 58.8 °F /  14.9 °C 30in /  1016.3hPa WNW 4.9mph /  7.9km/h 8mph /  12.9km/h 65% 0in /  0.0mm 95 W/m2
19:20 71.2 °F /  21.8 °C 58.8 °F /  14.9 °C 30in /  1016.3hPa West 6mph /  9.7km/h 9mph /  14.5km/h 65% 0in /  0.0mm 98 W/m2
19:25 71.1 °F /  21.7 °C 59.9 °F /  15.5 °C 30in /  1016.3hPa West 4mph /  6.4km/h 7mph /  11.3km/h 68% 0in /  0.0mm 105 W/m2
19:30 70.7 °F /  21.5 °C 60.1 °F /  15.6 °C 30in /  1016.3hPa West 4mph /  6.4km/h 8mph /  12.9km/h 69% 0in /  0.0mm 107 W/m2
19:35 70.5 °F /  21.4 °C 60.3 °F /  15.7 °C 30in /  1016.3hPa West 6mph /  9.7km/h 6mph /  9.7km/h 70% 0in /  0.0mm 111 W/m2
19:40 70.5 °F /  21.4 °C 60.3 °F /  15.7 °C 30in /  1016.3hPa NW 0.9mph /  1.4km/h 8mph /  12.9km/h 70% 0in /  0.0mm 113 W/m2
19:45 70.5 °F /  21.4 °C 60.3 °F /  15.7 °C 30in /  1016.3hPa WNW 4mph /  6.4km/h 7mph /  11.3km/h 70% 0in /  0.0mm 105 W/m2
19:50 70.5 °F /  21.4 °C 60.6 °F /  15.9 °C 30in /  1016.3hPa West 2.9mph /  4.7km/h 6mph /  9.7km/h 71% 0in /  0.0mm 98 W/m2
19:55 70.5 °F /  21.4 °C 60.6 °F /  15.9 °C 30in /  1016.3hPa WNW 4mph /  6.4km/h 6mph /  9.7km/h 71% 0in /  0.0mm 102 W/m2
20:00 70.3 °F /  21.3 °C 60.1 °F /  15.6 °C 30in /  1016.3hPa WNW 2.9mph /  4.7km/h 10mph /  16.1km/h 70% 0in /  0.0mm 109 W/m2
20:05 70.3 °F /  21.3 °C 60.1 °F /  15.6 °C 30in /  1016.3hPa WNW 4.9mph /  7.9km/h 8mph /  12.9km/h 70% 0in /  0.0mm 109 W/m2
20:10 70.3 °F /  21.3 °C 60.4 °F /  15.8 °C 30in /  1016.3hPa WNW 2.9mph /  4.7km/h 10mph /  16.1km/h 71% 0in /  0.0mm 104 W/m2
20:15 70.2 °F /  21.2 °C 60.3 °F /  15.7 °C 30in /  1016.3hPa NW 2mph /  3.2km/h 8mph /  12.9km/h 71% 0in /  0.0mm 113 W/m2
20:20 70.3 °F /  21.3 °C 60.8 °F /  16 °C 30in /  1016.3hPa WNW 2.9mph /  4.7km/h 9mph /  14.5km/h 72% 0in /  0.0mm 91 W/m2
20:25 70.2 °F /  21.2 °C 60.6 °F /  15.9 °C 30in /  1016.3hPa West 6mph /  9.7km/h 10mph /  16.1km/h 72% 0in /  0.0mm 77 W/m2
20:30 70 °F /  21.1 °C 61 °F /  16.1 °C 30in /  1016.6hPa WNW 2mph /  3.2km/h 5mph /  8km/h 73% 0in /  0.0mm 70 W/m2
20:35 69.6 °F /  20.9 °C 61 °F /  16.1 °C 30in /  1016.3hPa WNW 4mph /  6.4km/h 9mph /  14.5km/h 74% 0in /  0.0mm 62 W/m2
20:40 69.4 °F /  20.8 °C 60.8 °F /  16 °C 30in /  1016.3hPa NW 2mph /  3.2km/h 7mph /  11.3km/h 74% 0in /  0.0mm 44 W/m2
20:45 69.3 °F /  20.7 °C 60.6 °F /  15.9 °C 30in /  1016.3hPa West 6.9mph /  11.1km/h 9mph /  14.5km/h 74% 0in /  0.0mm 42 W/m2
20:50 69.1 °F /  20.6 °C 60.8 °F /  16 °C 30in /  1016.3hPa WNW 4mph /  6.4km/h 6mph /  9.7km/h 75% 0in /  0.0mm 44 W/m2
20:55 68.9 °F /  20.5 °C 60.6 °F /  15.9 °C 30in /  1016.3hPa West 2.9mph /  4.7km/h 10mph /  16.1km/h 75% 0in /  0.0mm 47 W/m2
21:00 68.9 °F /  20.5 °C 60.6 °F /  15.9 °C 30in /  1016.3hPa West 2mph /  3.2km/h 4mph /  6.4km/h 75% 0in /  0.0mm 44 W/m2
21:05 68.9 °F /  20.5 °C 60.6 °F /  15.9 °C 30in /  1016.3hPa West 2mph /  3.2km/h 10mph /  16.1km/h 75% 0in /  0.0mm 40 W/m2
21:10 69.1 °F /  20.6 °C 60.8 °F /  16 °C 30in /  1016.3hPa WNW 2mph /  3.2km/h 4mph /  6.4km/h 75% 0in /  0.0mm 37 W/m2
21:15 68.7 °F /  20.4 °C 60.4 °F /  15.8 °C 30in /  1016.3hPa West 2.9mph /  4.7km/h 9mph /  14.5km/h 75% 0in /  0.0mm 32 W/m2
21:20 68.5 °F /  20.3 °C 60.6 °F /  15.9 °C 30in /  1016.3hPa WNW 6.9mph /  11.1km/h 7mph /  11.3km/h 76% 0in /  0.0mm 28 W/m2
21:25 68.4 °F /  20.2 °C 60.4 °F /  15.8 °C 30in /  1016.3hPa WSW 4mph /  6.4km/h   76% 0in /  0.0mm 23 W/m2
21:30 68.2 °F /  20.1 °C 60.6 °F /  15.9 °C 30in /  1016.3hPa North 4mph /  6.4km/h 4mph /  6.4km/h 77% 0in /  0.0mm 14 W/m2
21:35 68 °F /  20 °C 60.4 °F /  15.8 °C 30in /  1016.3hPa NW 0.9mph /  1.4km/h 4mph /  6.4km/h 77% 0in /  0.0mm 9 W/m2
21:40 67.8 °F /  19.9 °C 60.3 °F /  15.7 °C 30in /  1016.3hPa North 2mph /  3.2km/h 7mph /  11.3km/h 77% 0in /  0.0mm 5 W/m2
21:45 67.6 °F /  19.8 °C 60.3 °F /  15.7 °C 30in /  1016.3hPa West 4mph /  6.4km/h 11mph /  17.7km/h 77% 0in /  0.0mm 5 W/m2
21:50 67.5 °F /  19.7 °C 60.1 °F /  15.6 °C 30in /  1016.6hPa NNW 2mph /  3.2km/h 5mph /  8km/h 77% 0in /  0.0mm 0 W/m2
21:55 67.3 °F /  19.6 °C 59.9 °F /  15.5 °C 30in /  1016.6hPa WNW 4mph /  6.4km/h 11mph /  17.7km/h 77% 0in /  0.0mm 0 W/m2
22:00 67.1 °F /  19.5 °C 59.7 °F /  15.4 °C 30in /  1016.6hPa West 2mph /  3.2km/h 4mph /  6.4km/h 77% 0in /  0.0mm 0 W/m2
22:05 66.9 °F /  19.4 °C 59.9 °F /  15.5 °C 30in /  1016.6hPa West 6mph /  9.7km/h 10mph /  16.1km/h 78% 0in /  0.0mm 0 W/m2
22:10 66.6 °F /  19.2 °C 59.5 °F /  15.3 °C 30in /  1016.6hPa West 2.9mph /  4.7km/h 7mph /  11.3km/h 78% 0in /  0.0mm 0 W/m2
22:15 66.4 °F /  19.1 °C 59.4 °F /  15.2 °C 30in /  1016.6hPa NW 2mph /  3.2km/h 10mph /  16.1km/h 78% 0in /  0.0mm 0 W/m2
22:20 66.4 °F /  19.1 °C 59.4 °F /  15.2 °C 30in /  1016.9hPa West 2mph /  3.2km/h 4mph /  6.4km/h 78% 0in /  0.0mm 0 W/m2
22:26 66 °F /  18.9 °C 59.4 °F /  15.2 °C 30in /  1016.9hPa West 2mph /  3.2km/h 4mph /  6.4km/h 79% 0in /  0.0mm 0 W/m2
22:31 65.8 °F /  18.8 °C 59.2 °F /  15.1 °C 30in /  1016.9hPa West 2mph /  3.2km/h 5mph /  8km/h 79% 0in /  0.0mm 0 W/m2
22:36 65.8 °F /  18.8 °C 59.2 °F /  15.1 °C 30in /  1016.9hPa WNW 2mph /  3.2km/h 5mph /  8km/h 79% 0in /  0.0mm 0 W/m2
22:41 65.7 °F /  18.7 °C 58.6 °F /  14.8 °C 30in /  1016.9hPa West 2.9mph /  4.7km/h 8mph /  12.9km/h 78% 0in /  0.0mm 0 W/m2
22:46 65.5 °F /  18.6 °C 58.5 °F /  14.7 °C 30in /  1016.9hPa WNW 4mph /  6.4km/h 4mph /  6.4km/h 78% 0in /  0.0mm 0 W/m2
22:51 65.3 °F /  18.5 °C 58.3 °F /  14.6 °C 30in /  1016.9hPa WNW 2mph /  3.2km/h 4mph /  6.4km/h 78% 0in /  0.0mm 0 W/m2
22:56 65.1 °F /  18.4 °C 58.1 °F /  14.5 °C 30in /  1016.6hPa Calm   4mph /  6.4km/h 78% 0in /  0.0mm 0 W/m2
23:01 64.9 °F /  18.3 °C 58.3 °F /  14.6 °C 30in /  1016.9hPa Calm   2mph /  3.2km/h 79% 0in /  0.0mm 0 W/m2
23:06 64.9 °F /  18.3 °C 58.3 °F /  14.6 °C 30in /  1016.9hPa ENE 0.9mph /  1.4km/h 3mph /  4.8km/h 79% 0in /  0.0mm 0 W/m2
23:11 64.8 °F /  18.2 °C 58.1 °F /  14.5 °C 30in /  1016.9hPa NNE 0.9mph /  1.4km/h 2mph /  3.2km/h 79% 0in /  0.0mm 0 W/m2
23:16 64.6 °F /  18.1 °C 58.3 °F /  14.6 °C 30in /  1017.3hPa WNW 0.9mph /  1.4km/h 4mph /  6.4km/h 80% 0in /  0.0mm 0 W/m2
23:21 64.4 °F /  18 °C 58.1 °F /  14.5 °C 30in /  1017.3hPa WNW 2.9mph /  4.7km/h 3mph /  4.8km/h 80% 0in /  0.0mm 0 W/m2
23:26 64.2 °F /  17.9 °C 57.9 °F /  14.4 °C 30in /  1017.3hPa NW 2mph /  3.2km/h 5mph /  8km/h 80% 0in /  0.0mm 0 W/m2
23:31 64 °F /  17.8 °C 58.1 °F /  14.5 °C 30in /  1017.3hPa NW 0.9mph /  1.4km/h 3mph /  4.8km/h 81% 0in /  0.0mm 0 W/m2
23:36 63.9 °F /  17.7 °C 57.9 °F /  14.4 °C 30in /  1017.3hPa West 0.9mph /  1.4km/h 4mph /  6.4km/h 81% 0in /  0.0mm 0 W/m2
23:41 63.5 °F /  17.5 °C 57.6 °F /  14.2 °C 30.1in /  1017.6hPa West 0.9mph /  1.4km/h 3mph /  4.8km/h 81% 0in /  0.0mm 0 W/m2
23:46 63.3 °F /  17.4 °C 57.4 °F /  14.1 °C 30.1in /  1017.6hPa Calm   2mph /  3.2km/h 81% 0in /  0.0mm 0 W/m2
23:51 63.1 °F /  17.3 °C 57.2 °F /  14 °C 30.1in /  1018.0hPa ENE 0.9mph /  1.4km/h 1mph /  1.6km/h 81% 0in /  0.0mm 0 W/m2
23:56 63 °F /  17.2 °C 57 °F /  13.9 °C 30.1in /  1018.0hPa North 0.9mph /  1.4km/h 2mph /  3.2km/h 81% 0in /  0.0mm 0 W/m2
Juneau County Weather
Compliments of Weather Underground - 4 mb